Time;durP1;ratioP1;P1;durP2;ratioP2;P2;SDS_P1;SDS_P2;PMS_P1;PMS_P2;Temp;Humidity;BMP_temperature;BMP_pressure;BME280_temperature;BME280_humidity;BME280_pressure;Samples;Min_cycle;Max_cycle;Signal;HPM_P1;HPM_P2
2022/05/04 05:16:35;;;;;;;;;;;;;;;17.97;100.00;98473.13;4882801;29;19955;-71
2022/05/04 05:19:02;;;;;;;;;;;;;;;18.46;98.05;98473.06;4868548;29;19951;-72
2022/05/04 05:21:29;;;;;;;;;;;;;;;19.18;96.72;98465.69;4871412;29;19954;-72
2022/05/04 05:23:57;;;;;;;;;;;;;;;19.37;96.27;98472.44;4866983;29;19950;-71
2022/05/04 05:26:24;;;;;;;;;;;;;;;19.76;93.60;98471.97;4863287;29;19973;-71
2022/05/04 05:28:52;;;;;;;;;;;;;;;19.72;88.99;98481.84;4876803;29;19964;-71
2022/05/04 05:31:19;;;;;;;;;;;;;;;19.51;86.46;98481.28;4877193;29;19955;-71
2022/05/04 05:33:47;;;;;;;;;;;;;;;19.61;87.07;98470.88;4873835;29;19953;-72
2022/05/04 05:36:14;;;;;;;;;;;;;;;19.24;88.85;98477.28;4868978;29;20304;-72
2022/05/04 05:38:42;;;;;;;;;;;;;;;18.89;92.46;98479.13;4880726;29;19953;-72
2022/05/04 05:41:09;;;;;;;;;;;;;;;18.44;94.40;98484.81;4879102;29;19951;-72
2022/05/04 05:43:36;;;;;;;;;;;;;;;18.18;99.60;98483.09;4869141;29;20331;-72
2022/05/04 05:46:04;;;;;;;;;;;;;;;18.27;100.00;98484.06;4879811;29;20020;-71
2022/05/04 05:48:31;;;;;;;;;;;;;;;18.30;99.79;98488.03;4881648;29;19953;-72
2022/05/04 05:51:04;;;;;;;;;;;;;;;18.05;100.00;98482.22;4881395;29;20366;-72
2022/05/04 05:53:31;;;;;;;;;;;;;;;17.81;100.00;98487.28;4881520;29;19959;-74
2022/05/04 05:55:58;;;;;;;;;;;;;;;17.34;100.00;98488.75;4881500;29;19953;-72
2022/05/04 05:58:26;;;;;;;;;;;;;;;17.06;100.00;98487.38;4881244;29;19973;-74
2022/05/04 06:00:53;;;;;;;;;;;;;;;16.95;100.00;98490.44;4881593;29;20334;-73
2022/05/04 06:03:21;;;;;;;;;;;;;;;16.71;100.00;98493.75;4873505;29;20249;-74
2022/05/04 06:05:49;;;;;;;;;;;;;;;16.77;100.00;98492.84;4872587;29;19973;-74
2022/05/04 06:08:16;;;;;;;;;;;;;;;16.81;100.00;98495.56;4876434;29;19958;-74
2022/05/04 06:10:44;;;;;;;;;;;;;;;16.95;100.00;98500.94;4880625;29;19951;-73
2022/05/04 06:13:11;;;;;;;;;;;;;;;17.05;100.00;98495.06;4880818;29;19987;-73
2022/05/04 06:15:38;;;;;;;;;;;;;;;17.12;100.00;98505.41;4880606;29;20387;-73
2022/05/04 06:18:06;;;;;;;;;;;;;;;17.12;100.00;98499.75;4881403;29;19953;-73
2022/05/04 06:20:33;;;;;;;;;;;;;;;16.98;100.00;98500.06;4880818;29;19960;-74
2022/05/04 06:23:00;;;;;;;;;;;;;;;17.07;100.00;98503.09;4881687;29;19961;-73
2022/05/04 06:25:27;;;;;;;;;;;;;;;17.12;100.00;98498.97;4897695;29;20371;-72
2022/05/04 06:27:55;;;;;;;;;;;;;;;17.07;100.00;98509.53;4899266;29;19960;-74
2022/05/04 06:35:55;;;;;;;;;;;;;;;17.31;100.00;98504.56;4899342;29;20325;-73
2022/05/04 06:38:22;;;;;;;;;;;;;;;17.43;100.00;98518.06;4899390;29;20330;-73
2022/05/04 06:40:49;;;;;;;;;;;;;;;17.55;100.00;98511.75;4898949;29;19950;-73
2022/05/04 06:43:17;;;;;;;;;;;;;;;17.56;100.00;98509.69;4900518;29;19950;-74
2022/05/04 06:45:44;;;;;;;;;;;;;;;17.44;100.00;98507.50;4903480;29;19974;-73
2022/05/04 06:48:11;;;;;;;;;;;;;;;17.59;100.00;98512.44;4882869;29;19959;-74
2022/05/04 06:50:38;;;;;;;;;;;;;;;17.79;100.00;98511.56;4879233;29;19959;-73
2022/05/04 06:53:06;;;;;;;;;;;;;;;17.85;100.00;98515.50;4882882;29;19958;-74
2022/05/04 06:55:33;;;;;;;;;;;;;;;17.81;100.00;98509.09;4865563;29;19957;-73
2022/05/04 06:58:00;;;;;;;;;;;;;;;17.64;100.00;98511.13;4865685;29;19954;-71
2022/05/04 07:00:27;;;;;;;;;;;;;;;17.76;100.00;98515.28;4865619;29;19951;-73
2022/05/04 07:02:55;;;;;;;;;;;;;;;17.95;100.00;98517.25;4865458;29;19949;-72
2022/05/04 07:05:22;;;;;;;;;;;;;;;18.15;100.00;98520.78;4867735;29;19958;-71
2022/05/04 07:07:49;;;;;;;;;;;;;;;18.42;100.00;98523.31;4884211;29;19966;-72
2022/05/04 07:10:16;;;;;;;;;;;;;;;18.53;100.00;98513.34;4884514;29;19962;-73
2022/05/04 07:12:44;;;;;;;;;;;;;;;18.62;100.00;98521.97;4883736;29;19990;-73
2022/05/04 07:15:11;;;;;;;;;;;;;;;18.91;100.00;98527.63;4867517;29;19953;-74
2022/05/04 07:17:38;;;;;;;;;;;;;;;18.98;98.75;98519.72;4883907;29;19949;-72
2022/05/04 07:20:05;;;;;;;;;;;;;;;19.28;100.00;98526.16;4898512;29;20621;-72
2022/05/04 07:22:33;;;;;;;;;;;;;;;19.32;96.93;98524.81;4884344;29;19958;-72
2022/05/04 07:25:03;;;;;;;;;;;;;;;19.47;98.15;98525.19;4882374;29;19956;-74
2022/05/04 07:27:31;;;;;;;;;;;;;;;19.64;97.92;98521.00;4881622;29;19976;-74
2022/05/04 07:29:58;;;;;;;;;;;;;;;19.71;95.41;98523.63;4883730;29;19950;-74
2022/05/04 07:32:25;;;;;;;;;;;;;;;19.84;94.30;98521.59;4883847;29;20458;-73
2022/05/04 07:34:52;;;;;;;;;;;;;;;19.76;93.69;98520.22;4883509;29;19961;-74
2022/05/04 07:37:20;;;;;;;;;;;;;;;19.84;94.02;98523.63;4881839;29;19959;-74
2022/05/04 07:42:33;;;;;;;;;;;;;;;19.90;96.28;98527.50;4880638;29;19956;-74
2022/05/04 07:45:04;;;;;;;;;;;;;;;19.93;96.37;98530.19;4881411;29;19964;-74
2022/05/04 07:47:32;;;;;;;;;;;;;;;20.13;96.41;98519.41;4881567;29;19973;-73
2022/05/04 07:50:00;;;;;;;;;;;;;;;20.15;96.87;98525.41;4883005;29;19948;-74
2022/05/04 07:52:27;;;;;;;;;;;;;;;20.27;97.07;98526.69;4880544;29;19956;-74
2022/05/04 07:54:55;;;;;;;;;;;;;;;20.14;91.78;98537.22;4877449;29;20290;-74
2022/05/04 07:57:22;;;;;;;;;;;;;;;20.14;94.52;98532.34;4882574;29;20340;-74
2022/05/04 08:05:24;;;;;;;;;;;;;;;20.58;95.31;98529.66;4876878;29;19959;-72
2022/05/04 08:07:52;;;;;;;;;;;;;;;20.64;93.75;98530.69;4863709;29;19978;-72
2022/05/04 08:10:20;;;;;;;;;;;;;;;20.51;95.94;98535.59;4874179;29;19959;-73
2022/05/04 08:12:47;;;;;;;;;;;;;;;20.56;95.68;98526.50;4864319;29;20373;-74
2022/05/04 08:15:14;;;;;;;;;;;;;;;20.52;95.51;98526.59;4869132;29;19950;-74
2022/05/04 08:17:41;;;;;;;;;;;;;;;20.55;95.18;98530.56;4878525;29;19954;-74
2022/05/04 08:20:09;;;;;;;;;;;;;;;20.42;95.59;98532.69;4846776;29;19964;-74
2022/05/04 08:22:36;;;;;;;;;;;;;;;20.38;96.77;98535.63;4847625;29;19973;-74
2022/05/04 08:25:04;;;;;;;;;;;;;;;20.57;96.50;98536.59;4876911;29;19952;-74
2022/05/04 08:27:32;;;;;;;;;;;;;;;20.60;96.42;98533.63;4882560;29;19969;-74
2022/05/04 08:30:00;;;;;;;;;;;;;;;20.42;100.00;98527.78;4881807;29;19951;-74
2022/05/04 08:32:29;;;;;;;;;;;;;;;20.45;100.00;98537.41;4866072;29;19960;-74
2022/05/04 08:34:57;;;;;;;;;;;;;;;20.42;100.00;98539.13;4882661;29;20247;-74
2022/05/04 08:37:27;;;;;;;;;;;;;;;20.26;100.00;98533.59;4875636;29;19951;-74
2022/05/04 08:39:54;;;;;;;;;;;;;;;20.11;100.00;98538.13;4863419;29;19951;-73
2022/05/04 08:42:22;;;;;;;;;;;;;;;19.83;100.00;98536.25;4870288;29;19959;-73
2022/05/04 08:44:53;;;;;;;;;;;;;;;19.81;99.51;98536.69;4882540;29;19947;-73
2022/05/04 08:47:22;;;;;;;;;;;;;;;19.84;100.00;98537.81;4881671;29;19976;-74
2022/05/04 08:49:49;;;;;;;;;;;;;;;19.79;100.00;98533.50;4872489;29;19955;-73
2022/05/04 08:52:17;;;;;;;;;;;;;;;19.55;100.00;98535.09;4889357;29;19948;-73
2022/05/04 08:54:44;;;;;;;;;;;;;;;19.73;100.00;98526.81;4863446;29;20283;-73
2022/05/04 08:57:11;;;;;;;;;;;;;;;19.63;100.00;98539.28;4862311;29;19955;-74
2022/05/04 08:59:41;;;;;;;;;;;;;;;19.59;100.00;98530.88;4874871;29;20367;-73
2022/05/04 09:02:09;;;;;;;;;;;;;;;19.58;100.00;98537.03;4862506;29;19954;-73
2022/05/04 09:04:40;;;;;;;;;;;;;;;19.57;100.00;98538.25;4877324;29;19973;-73
2022/05/04 09:07:25;;;;;;;;;;;;;;;19.57;100.00;98529.75;4864934;29;19972;-73
2022/05/04 09:09:53;;;;;;;;;;;;;;;19.67;100.00;98523.75;4881581;29;20064;-73
2022/05/04 09:12:20;;;;;;;;;;;;;;;19.88;100.00;98527.16;4882541;29;19961;-74
2022/05/04 09:14:48;;;;;;;;;;;;;;;19.84;100.00;98532.13;4883035;29;20333;-73
2022/05/04 09:17:16;;;;;;;;;;;;;;;19.89;100.00;98528.72;4881106;29;19960;-73
2022/05/04 09:20:45;;;;;;;;;;;;;;;19.95;100.00;98527.72;4882043;29;19947;-73
2022/05/04 09:22:40;;;;;;;;;;;;;;;19.95;98.57;98530.56;4881313;29;20378;-73
2022/05/04 09:25:16;;;;;;;;;;;;;;;19.95;93.57;98527.72;4881357;29;20218;-73
2022/05/04 09:27:44;;;;;;;;;;;;;;;19.97;100.00;98525.22;4881518;29;20416;-73
2022/05/04 09:30:12;;;;;;;;;;;;;;;20.18;100.00;98527.34;4881737;29;20251;-73
2022/05/04 09:32:40;;;;;;;;;;;;;;;20.24;100.00;98519.09;4881320;29;20289;-73
2022/05/04 09:35:14;;;;;;;;;;;;;;;20.42;100.00;98519.25;4865121;29;19958;-73
2022/05/04 09:46:06;;;;;;;;;;;;;;;20.88;100.00;98520.47;4878509;29;19956;-73
2022/05/04 09:48:34;;;;;;;;;;;;;;;20.01;100.00;98508.84;4879500;29;19983;-73
2022/05/04 09:51:06;;;;;;;;;;;;;;;20.33;100.00;98516.31;4881127;29;19945;-73
2022/05/04 09:53:34;;;;;;;;;;;;;;;20.47;100.00;98512.97;4880765;29;19958;-73
2022/05/04 09:56:01;;;;;;;;;;;;;;;20.38;100.00;98509.25;4864471;29;19962;-74
2022/05/04 09:58:29;;;;;;;;;;;;;;;20.45;100.00;98514.69;4880997;29;19953;-73
2022/05/04 10:00:58;;;;;;;;;;;;;;;20.58;98.86;98512.63;4880970;29;19954;-73
2022/05/04 10:03:25;;;;;;;;;;;;;;;20.61;100.00;98515.34;4880645;29;19955;-73
2022/05/04 10:05:54;;;;;;;;;;;;;;;20.31;100.00;98510.31;4880830;29;19962;-73
2022/05/04 10:08:22;;;;;;;;;;;;;;;20.54;100.00;98511.97;4881132;29;19981;-73
2022/05/04 10:10:52;;;;;;;;;;;;;;;20.39;100.00;98505.97;4881090;29;19950;-73
2022/05/04 10:13:20;;;;;;;;;;;;;;;20.57;100.00;98508.19;4876657;29;20264;-73
2022/05/04 10:15:49;;;;;;;;;;;;;;;20.67;100.00;98504.16;4879755;29;19980;-74
2022/05/04 10:18:19;;;;;;;;;;;;;;;20.35;100.00;98504.50;4876549;29;20218;-74
2022/05/04 10:20:54;;;;;;;;;;;;;;;20.56;100.00;98510.25;4880925;29;20356;-73
2022/05/04 10:23:23;;;;;;;;;;;;;;;20.60;100.00;98487.38;4884375;29;20387;-73
2022/05/04 10:25:51;;;;;;;;;;;;;;;20.53;100.00;98499.00;4883821;29;19955;-73
2022/05/04 10:28:18;;;;;;;;;;;;;;;20.52;100.00;98491.72;4884220;29;19972;-73
2022/05/04 10:30:55;;;;;;;;;;;;;;;20.47;100.00;98495.16;4884377;29;20258;-73
2022/05/04 10:33:25;;;;;;;;;;;;;;;20.56;100.00;98486.72;4874219;29;19953;-73
2022/05/04 10:35:52;;;;;;;;;;;;;;;20.64;99.65;98491.66;4884241;29;19960;-73
2022/05/04 10:38:29;;;;;;;;;;;;;;;20.73;98.27;98494.59;4881582;29;19950;-73
2022/05/04 10:41:00;;;;;;;;;;;;;;;20.79;100.00;98483.41;4865397;29;19959;-73
2022/05/04 10:43:35;;;;;;;;;;;;;;;20.91;96.10;98485.41;4882648;29;19957;-73
2022/05/04 10:46:05;;;;;;;;;;;;;;;20.81;98.22;98475.22;4884093;29;19951;-73
2022/05/04 10:48:32;;;;;;;;;;;;;;;20.93;97.45;98475.16;4882768;29;20407;-73
2022/05/04 10:51:02;;;;;;;;;;;;;;;20.98;94.54;98475.84;4883539;29;19956;-74
2022/05/04 10:53:32;;;;;;;;;;;;;;;20.96;92.14;98473.44;4882911;29;19958;-73
2022/05/04 10:56:00;;;;;;;;;;;;;;;20.83;98.06;98472.72;4879106;29;19959;-73
2022/05/04 10:58:32;;;;;;;;;;;;;;;21.02;96.20;98467.97;4867619;29;19953;-74
2022/05/04 11:01:03;;;;;;;;;;;;;;;21.01;100.00;98460.66;4883586;29;19954;-74
2022/05/04 11:03:32;;;;;;;;;;;;;;;21.11;100.00;98468.84;4882444;29;20340;-73
2022/05/04 11:06:02;;;;;;;;;;;;;;;21.10;100.00;98458.75;4882711;29;19958;-74
2022/05/04 11:08:33;;;;;;;;;;;;;;;20.94;100.00;98459.69;4881992;29;19975;-74
2022/05/04 11:11:00;;;;;;;;;;;;;;;21.00;98.98;98454.22;4882798;29;19954;-74
2022/05/04 11:13:28;;;;;;;;;;;;;;;20.95;94.99;98457.66;4857640;29;20407;-73
2022/05/04 11:15:57;;;;;;;;;;;;;;;20.75;94.37;98457.19;4872528;29;19962;-74
2022/05/04 11:18:26;;;;;;;;;;;;;;;20.48;94.95;98459.81;4882332;29;19961;-73
2022/05/04 11:20:54;;;;;;;;;;;;;;;20.18;99.81;98466.91;4883681;29;19963;-73
2022/05/04 11:23:23;;;;;;;;;;;;;;;20.16;100.00;98458.88;4882974;29;19962;-73
2022/05/04 11:25:50;;;;;;;;;;;;;;;19.76;100.00;98466.31;4883009;29;20272;-73
2022/05/04 11:28:19;;;;;;;;;;;;;;;19.80;100.00;98484.03;4883440;29;19977;-74
2022/05/04 11:30:46;;;;;;;;;;;;;;;19.65;100.00;98474.38;4866073;29;19963;-73
2022/05/04 11:33:14;;;;;;;;;;;;;;;19.71;100.00;98478.22;4883074;29;19951;-74
2022/05/04 11:35:41;;;;;;;;;;;;;;;19.60;100.00;98474.94;4882068;29;19955;-74
2022/05/04 11:38:18;;;;;;;;;;;;;;;19.50;100.00;98485.38;4882980;29;19956;-74
2022/05/04 11:40:46;;;;;;;;;;;;;;;19.54;100.00;98477.53;4883360;29;20545;-74
2022/05/04 11:43:25;;;;;;;;;;;;;;;19.49;100.00;98480.94;4880375;29;19966;-74
2022/05/04 11:45:53;;;;;;;;;;;;;;;19.44;100.00;98469.41;4881441;29;20348;-74
2022/05/04 11:48:21;;;;;;;;;;;;;;;19.44;100.00;98473.00;4880953;29;20007;-74
2022/05/04 11:50:49;;;;;;;;;;;;;;;19.32;100.00;98467.28;4877597;29;20256;-73
2022/05/04 11:53:16;;;;;;;;;;;;;;;19.25;100.00;98456.97;4882582;29;19951;-73
2022/05/04 11:55:43;;;;;;;;;;;;;;;19.26;100.00;98440.75;4881717;29;19958;-73
2022/05/04 11:58:11;;;;;;;;;;;;;;;19.10;100.00;98444.47;4880530;29;19983;-73
2022/05/04 12:00:38;;;;;;;;;;;;;;;19.07;100.00;98444.59;4882446;29;19955;-74
2022/05/04 12:03:06;;;;;;;;;;;;;;;18.98;100.00;98450.91;4881035;29;19959;-74
2022/05/04 12:05:35;;;;;;;;;;;;;;;18.76;100.00;98467.75;4882743;29;19980;-74
2022/05/04 12:08:04;;;;;;;;;;;;;;;18.57;100.00;98473.56;4883127;29;19972;-74
2022/05/04 12:10:32;;;;;;;;;;;;;;;18.47;100.00;98492.44;4880732;29;19955;-74
2022/05/04 12:13:01;;;;;;;;;;;;;;;18.35;100.00;98496.78;4863164;29;19979;-73
2022/05/04 12:15:29;;;;;;;;;;;;;;;18.31;100.00;98503.78;4864141;29;19958;-73
2022/05/04 12:18:00;;;;;;;;;;;;;;;18.17;100.00;98498.47;4863949;29;20015;-74
2022/05/04 12:20:28;;;;;;;;;;;;;;;18.03;100.00;98491.16;4862962;29;20341;-73
2022/05/04 12:22:55;;;;;;;;;;;;;;;17.93;100.00;98485.75;4864045;29;19958;-74
2022/05/04 12:25:23;;;;;;;;;;;;;;;17.80;100.00;98477.22;4864326;29;19954;-73
2022/05/04 12:27:51;;;;;;;;;;;;;;;17.71;100.00;98483.47;4861925;29;20454;-73
2022/05/04 12:33:11;;;;;;;;;;;;;;;17.49;100.00;98490.84;4857457;29;19958;-73
2022/05/04 12:35:42;;;;;;;;;;;;;;;17.40;100.00;98501.97;4861807;29;22138;-73
2022/05/04 12:38:13;;;;;;;;;;;;;;;17.27;100.00;98514.38;4863213;29;19953;-73
2022/05/04 12:40:41;;;;;;;;;;;;;;;17.00;100.00;98509.69;4858188;29;19967;-74
2022/05/04 12:43:09;;;;;;;;;;;;;;;16.79;100.00;98515.00;4861080;29;19962;-74
2022/05/04 12:45:37;;;;;;;;;;;;;;;16.59;100.00;98517.00;4863581;29;19955;-74
2022/05/04 12:48:09;;;;;;;;;;;;;;;16.32;100.00;98511.44;4862713;29;19952;-74
2022/05/04 12:50:37;;;;;;;;;;;;;;;16.07;100.00;98505.41;4862763;29;20341;-74
2022/05/04 12:53:05;;;;;;;;;;;;;;;15.87;100.00;98511.00;4864347;29;20543;-73
2022/05/04 12:58:18;;;;;;;;;;;;;;;15.53;100.00;98513.94;4863520;29;19954;-73
2022/05/04 13:00:45;;;;;;;;;;;;;;;15.38;100.00;98504.06;4854829;29;19984;-74
2022/05/04 13:03:12;;;;;;;;;;;;;;;15.25;100.00;98517.16;4862083;29;19952;-73
2022/05/04 13:05:39;;;;;;;;;;;;;;;15.22;100.00;98505.94;4863255;29;19949;-74
2022/05/04 13:08:08;;;;;;;;;;;;;;;15.09;100.00;98508.50;4861919;29;19959;-74
2022/05/04 13:10:38;;;;;;;;;;;;;;;15.04;100.00;98500.53;4863018;29;19959;-73
2022/05/04 13:13:06;;;;;;;;;;;;;;;15.04;100.00;98492.88;4871311;29;20620;-74
2022/05/04 13:15:34;;;;;;;;;;;;;;;15.20;100.00;98497.13;4880237;29;19959;-74
2022/05/04 13:18:03;;;;;;;;;;;;;;;15.48;100.00;98500.34;4881381;29;19960;-74
2022/05/04 13:20:31;;;;;;;;;;;;;;;15.73;100.00;98516.88;4881302;29;19955;-74
2022/05/04 13:22:58;;;;;;;;;;;;;;;16.01;100.00;98533.34;4878312;29;19957;-74
2022/05/04 13:25:25;;;;;;;;;;;;;;;16.15;100.00;98530.28;4880833;29;19959;-74
2022/05/04 13:27:53;;;;;;;;;;;;;;;16.37;100.00;98541.97;4881063;29;20359;-73
2022/05/04 13:30:20;;;;;;;;;;;;;;;16.43;100.00;98532.56;4880665;29;19971;-73
2022/05/04 13:32:48;;;;;;;;;;;;;;;16.61;100.00;98537.91;4880672;29;20374;-74
2022/05/04 13:35:15;;;;;;;;;;;;;;;16.70;100.00;98540.97;4881497;29;19959;-74
2022/05/04 13:37:43;;;;;;;;;;;;;;;16.83;100.00;98539.09;4880195;29;19954;-74
2022/05/04 13:40:10;;;;;;;;;;;;;;;16.98;100.00;98534.75;4881007;29;19960;-74
2022/05/04 13:42:37;;;;;;;;;;;;;;;17.11;100.00;98532.09;4880379;29;20263;-74
2022/05/04 13:45:05;;;;;;;;;;;;;;;17.30;100.00;98538.94;4873910;29;19963;-73
2022/05/04 13:47:33;;;;;;;;;;;;;;;17.43;100.00;98529.34;4880517;29;19958;-74
2022/05/04 13:50:00;;;;;;;;;;;;;;;17.50;100.00;98525.56;4879910;29;19968;-74
2022/05/04 13:55:13;;;;;;;;;;;;;;;17.65;100.00;98513.50;4877449;29;19948;-74
2022/05/04 13:57:40;;;;;;;;;;;;;;;17.71;100.00;98520.25;4880180;29;19950;-74
2022/05/04 14:00:08;;;;;;;;;;;;;;;17.65;100.00;98519.16;4879762;29;19951;-74
2022/05/04 14:02:40;;;;;;;;;;;;;;;17.79;100.00;98512.38;4880013;29;20536;-74
2022/05/04 14:05:08;;;;;;;;;;;;;;;17.84;100.00;98517.50;4880421;29;19956;-74
2022/05/04 14:07:36;;;;;;;;;;;;;;;18.01;100.00;98509.81;4879949;29;19953;-74
2022/05/04 14:10:03;;;;;;;;;;;;;;;17.97;100.00;98520.44;4872520;29;19997;-73
2022/05/04 14:12:31;;;;;;;;;;;;;;;17.61;100.00;98504.31;4880289;29;19980;-73
2022/05/04 14:15:04;;;;;;;;;;;;;;;17.73;100.00;98496.38;4883619;29;19982;-74
2022/05/04 14:17:31;;;;;;;;;;;;;;;17.64;100.00;98497.78;4876681;29;19954;-74
2022/05/04 14:19:58;;;;;;;;;;;;;;;17.70;100.00;98495.22;4879982;29;19962;-74
2022/05/04 14:22:25;;;;;;;;;;;;;;;17.56;100.00;98496.34;4878990;29;19984;-73
2022/05/04 14:24:53;;;;;;;;;;;;;;;17.53;100.00;98497.22;4879417;29;19960;-74
2022/05/04 14:27:20;;;;;;;;;;;;;;;17.60;100.00;98484.97;4879862;29;19951;-74
2022/05/04 14:29:49;;;;;;;;;;;;;;;17.38;100.00;98483.84;4876882;29;19972;-73
2022/05/04 14:32:16;;;;;;;;;;;;;;;17.45;100.00;98483.69;4879860;29;19950;-74
2022/05/04 14:34:43;;;;;;;;;;;;;;;17.28;100.00;98477.19;4878979;29;19978;-74
2022/05/04 14:37:10;;;;;;;;;;;;;;;17.36;100.00;98480.66;4878845;29;19956;-74
2022/05/04 14:39:37;;;;;;;;;;;;;;;17.46;100.00;98476.81;4878793;29;19975;-74
2022/05/04 14:42:05;;;;;;;;;;;;;;;17.27;100.00;98475.59;4869751;29;19949;-74
2022/05/04 14:44:32;;;;;;;;;;;;;;;17.41;100.00;98472.44;4875554;29;19949;-74
2022/05/04 14:46:59;;;;;;;;;;;;;;;17.42;100.00;98479.69;4879942;29;19950;-74
2022/05/04 14:49:28;;;;;;;;;;;;;;;17.22;100.00;98470.47;4877196;29;20363;-74
2022/05/04 14:51:55;;;;;;;;;;;;;;;17.21;100.00;98465.25;4879587;29;19953;-74
2022/05/04 14:54:22;;;;;;;;;;;;;;;17.23;100.00;98472.06;4876474;29;19965;-73
2022/05/04 14:56:50;;;;;;;;;;;;;;;17.23;100.00;98466.41;4878316;29;19949;-73
2022/05/04 14:59:18;;;;;;;;;;;;;;;17.16;100.00;98466.56;4879793;29;19958;-73
2022/05/04 15:01:46;;;;;;;;;;;;;;;17.13;100.00;98467.44;4880484;29;19976;-73
2022/05/04 15:06:58;;;;;;;;;;;;;;;17.01;100.00;98454.00;4879567;29;19953;-73
2022/05/04 15:09:26;;;;;;;;;;;;;;;16.97;100.00;98458.94;4880468;29;19967;-73
2022/05/04 15:11:53;;;;;;;;;;;;;;;16.85;100.00;98451.09;4883225;29;19950;-73
2022/05/04 15:14:20;;;;;;;;;;;;;;;16.83;100.00;98447.91;4883239;29;19979;-73
2022/05/04 15:16:48;;;;;;;;;;;;;;;16.88;100.00;98450.22;4883131;29;19949;-73
2022/05/04 15:19:15;;;;;;;;;;;;;;;16.72;100.00;98447.38;4883753;29;19954;-73
2022/05/04 15:21:42;;;;;;;;;;;;;;;16.79;100.00;98441.56;4882571;29;20343;-73
2022/05/04 15:24:10;;;;;;;;;;;;;;;16.70;100.00;98447.78;4881051;29;20249;-73
2022/05/04 15:26:38;;;;;;;;;;;;;;;16.66;100.00;98446.25;4881342;29;19956;-73
2022/05/04 15:29:05;;;;;;;;;;;;;;;16.63;100.00;98444.34;4877237;29;19949;-73
2022/05/04 15:31:33;;;;;;;;;;;;;;;16.58;100.00;98447.66;4882156;29;19998;-73
2022/05/04 15:34:00;;;;;;;;;;;;;;;16.55;100.00;98437.22;4883994;29;20308;-73
2022/05/04 15:36:27;;;;;;;;;;;;;;;16.53;100.00;98439.69;4883430;29;19952;-73
2022/05/04 15:38:54;;;;;;;;;;;;;;;16.57;100.00;98432.75;4866311;29;19954;-73
2022/05/04 15:41:22;;;;;;;;;;;;;;;16.47;100.00;98430.91;4880680;29;20259;-73
2022/05/04 15:43:49;;;;;;;;;;;;;;;16.44;100.00;98434.59;4881124;29;19998;-73
2022/05/04 15:46:16;;;;;;;;;;;;;;;16.48;100.00;98431.69;4881859;29;19953;-73
2022/05/04 15:48:43;;;;;;;;;;;;;;;16.47;100.00;98433.72;4882571;29;20242;-73
2022/05/04 15:51:12;;;;;;;;;;;;;;;16.50;100.00;98432.84;4882775;29;19972;-73
2022/05/04 15:53:39;;;;;;;;;;;;;;;16.56;100.00;98424.69;4881561;29;19950;-73
2022/05/04 15:56:07;;;;;;;;;;;;;;;16.54;100.00;98419.50;4882209;29;19953;-74
2022/05/04 15:58:34;;;;;;;;;;;;;;;16.56;100.00;98422.66;4882501;29;19958;-73
2022/05/04 16:01:01;;;;;;;;;;;;;;;16.60;100.00;98428.25;4882163;29;20269;-74
2022/05/04 16:06:14;;;;;;;;;;;;;;;16.65;100.00;98425.69;4880640;29;20245;-73
2022/05/04 16:08:42;;;;;;;;;;;;;;;16.64;100.00;98432.59;4880486;29;19953;-73
2022/05/04 16:11:09;;;;;;;;;;;;;;;16.66;100.00;98429.31;4880032;29;19973;-74
2022/05/04 16:13:36;;;;;;;;;;;;;;;16.68;100.00;98429.69;4882360;29;20376;-74
2022/05/04 16:16:04;;;;;;;;;;;;;;;16.71;100.00;98434.47;4882122;29;20238;-73
2022/05/04 16:24:02;;;;;;;;;;;;;;;16.80;100.00;98440.34;4878474;29;20239;-73
2022/05/04 16:26:30;;;;;;;;;;;;;;;16.79;100.00;98433.91;4882858;29;19957;-73
2022/05/04 16:28:57;;;;;;;;;;;;;;;16.83;100.00;98428.16;4881473;29;19956;-73
2022/05/04 16:31:24;;;;;;;;;;;;;;;16.87;100.00;98428.88;4879606;29;19972;-73
2022/05/04 16:33:51;;;;;;;;;;;;;;;16.88;100.00;98430.47;4882667;29;19960;-73
2022/05/04 16:36:19;;;;;;;;;;;;;;;16.92;100.00;98426.31;4882923;29;19950;-73
2022/05/04 16:38:46;;;;;;;;;;;;;;;16.93;100.00;98422.28;4882708;29;19953;-73
2022/05/04 16:41:13;;;;;;;;;;;;;;;16.92;100.00;98428.38;4882704;29;19960;-73
2022/05/04 16:43:40;;;;;;;;;;;;;;;16.89;100.00;98429.25;4874848;29;19950;-73
2022/05/04 16:46:08;;;;;;;;;;;;;;;16.81;100.00;98420.13;4878944;29;19960;-73
2022/05/04 16:48:35;;;;;;;;;;;;;;;16.80;100.00;98414.94;4881189;29;20243;-73
2022/05/04 16:51:03;;;;;;;;;;;;;;;16.74;100.00;98416.66;4881607;29;19968;-73
2022/05/04 16:53:30;;;;;;;;;;;;;;;16.69;100.00;98414.34;4881446;29;20388;-73
2022/05/04 16:55:58;;;;;;;;;;;;;;;16.65;100.00;98411.56;4882386;29;19960;-73
2022/05/04 16:58:25;;;;;;;;;;;;;;;16.63;100.00;98404.81;4883004;29;19947;-74
2022/05/04 17:00:53;;;;;;;;;;;;;;;16.62;100.00;98406.81;4882625;29;19950;-73
2022/05/04 17:03:21;;;;;;;;;;;;;;;16.56;100.00;98405.72;4882791;29;19953;-73
2022/05/04 17:05:49;;;;;;;;;;;;;;;16.60;100.00;98400.03;4880666;29;20343;-73
2022/05/04 17:08:17;;;;;;;;;;;;;;;16.57;100.00;98403.72;4876669;29;20222;-73
2022/05/04 17:10:44;;;;;;;;;;;;;;;16.54;100.00;98399.72;4880736;29;19963;-73
2022/05/04 17:13:12;;;;;;;;;;;;;;;16.53;100.00;98403.00;4879352;29;19973;-73
2022/05/04 17:15:39;;;;;;;;;;;;;;;16.50;100.00;98401.00;4864091;29;20329;-73
2022/05/04 17:18:06;;;;;;;;;;;;;;;16.46;100.00;98400.28;4879775;29;19951;-74
2022/05/04 17:20:34;;;;;;;;;;;;;;;16.41;100.00;98396.72;4877258;29;19956;-73
2022/05/04 17:23:01;;;;;;;;;;;;;;;16.40;100.00;98391.53;4882117;29;20648;-73
2022/05/04 17:25:28;;;;;;;;;;;;;;;16.40;100.00;98392.34;4882096;29;19980;-73
2022/05/04 17:27:55;;;;;;;;;;;;;;;16.42;100.00;98391.88;4872260;29;19957;-73
2022/05/04 17:30:23;;;;;;;;;;;;;;;16.42;100.00;98389.88;4875348;29;19952;-73
2022/05/04 17:38:23;;;;;;;;;;;;;;;16.38;100.00;98386.31;4868016;29;19954;-73
2022/05/04 17:40:50;;;;;;;;;;;;;;;16.37;100.00;98398.03;4881691;29;19955;-73
2022/05/04 17:43:17;;;;;;;;;;;;;;;16.37;100.00;98398.84;4882101;29;19954;-73
2022/05/04 17:45:47;;;;;;;;;;;;;;;16.38;100.00;98399.66;4881918;29;19960;-73
2022/05/04 17:48:14;;;;;;;;;;;;;;;16.35;100.00;98401.31;4879221;29;20224;-73
2022/05/04 17:50:42;;;;;;;;;;;;;;;16.35;100.00;98403.31;4880098;29;19977;-73
2022/05/04 17:53:09;;;;;;;;;;;;;;;16.32;100.00;98410.63;4880199;29;19948;-73
2022/05/04 17:55:36;;;;;;;;;;;;;;;16.28;100.00;98406.28;4868934;29;19953;-73
2022/05/04 17:58:04;;;;;;;;;;;;;;;16.23;100.00;98404.78;4868654;29;20351;-73
2022/05/04 18:00:31;;;;;;;;;;;;;;;16.17;100.00;98409.31;4881449;29;19954;-73
2022/05/04 18:05:45;;;;;;;;;;;;;;;15.97;100.00;98411.31;4874521;29;20334;-73
2022/05/04 18:08:12;;;;;;;;;;;;;;;15.95;100.00;98410.13;4878400;29;19957;-73
2022/05/04 18:10:40;;;;;;;;;;;;;;;15.93;100.00;98412.59;4878718;29;20335;-73
2022/05/04 18:13:09;;;;;;;;;;;;;;;15.92;100.00;98416.66;4880942;29;19968;-73
2022/05/04 18:15:37;;;;;;;;;;;;;;;15.93;100.00;98415.41;4876406;29;19956;-73
2022/05/04 18:18:04;;;;;;;;;;;;;;;15.89;100.00;98423.97;4878137;29;19953;-73
2022/05/04 18:20:32;;;;;;;;;;;;;;;15.84;100.00;98424.44;4877885;29;19987;-73
2022/05/04 18:23:05;;;;;;;;;;;;;;;15.74;100.00;98423.41;4881368;29;19955;-73
2022/05/04 18:25:33;;;;;;;;;;;;;;;15.68;100.00;98432.78;4881843;29;19952;-73
2022/05/04 18:28:01;;;;;;;;;;;;;;;15.61;100.00;98427.25;4880757;29;20251;-73
2022/05/04 18:30:28;;;;;;;;;;;;;;;15.55;100.00;98426.16;4898376;29;19966;-73
2022/05/04 18:32:57;;;;;;;;;;;;;;;15.44;100.00;98417.84;4899801;29;20573;-73
2022/05/04 18:35:26;;;;;;;;;;;;;;;15.31;100.00;98418.88;4899868;29;20221;-73
2022/05/04 18:37:53;;;;;;;;;;;;;;;15.25;100.00;98427.00;4900313;29;19947;-73
2022/05/04 18:40:20;;;;;;;;;;;;;;;15.17;100.00;98421.91;4902244;29;19947;-73
2022/05/04 18:42:50;;;;;;;;;;;;;;;15.09;100.00;98422.00;4883287;29;19956;-73
2022/05/04 18:45:17;;;;;;;;;;;;;;;15.03;100.00;98428.56;4883958;29;19955;-73
2022/05/04 18:47:44;;;;;;;;;;;;;;;14.96;100.00;98425.84;4883964;29;19947;-73